Time;durP1;ratioP1;P1;durP2;ratioP2;P2;SDS_P1;SDS_P2;PMS_P1;PMS_P2;Temp;Humidity;BMP_temperature;BMP_pressure;BME280_temperature;BME280_humidity;BME280_pressure;Samples;Min_cycle;Max_cycle;Signal;HPM_P1;HPM_P2
2023/01/31 00:00:12;;;;;;;18.65;3.03;;;3.80;99.90;;;;;;5093293;28;20040;-68
2023/01/31 00:02:38;;;;;;;19.23;2.75;;;3.80;99.90;;;;;;5091350;28;20042;-67
2023/01/31 00:05:04;;;;;;;20.60;3.15;;;4.90;99.90;;;;;;5093421;28;20044;-68
2023/01/31 00:07:29;;;;;;;15.45;3.15;;;3.80;99.90;;;;;;5090739;28;20040;-68
2023/01/31 00:09:55;;;;;;;20.15;3.35;;;4.00;99.90;;;;;;5092742;28;20105;-68
2023/01/31 00:12:21;;;;;;;20.92;4.05;;;3.80;99.90;;;;;;5091769;28;20047;-69
2023/01/31 00:14:46;;;;;;;20.42;3.13;;;3.80;99.90;;;;;;5091164;28;20044;-68
2023/01/31 00:17:12;;;;;;;18.05;3.08;;;3.70;99.90;;;;;;5083147;28;20058;-68
2023/01/31 00:19:38;;;;;;;16.75;3.35;;;3.70;99.90;;;;;;5090439;28;20071;-68
2023/01/31 00:22:03;;;;;;;17.90;2.78;;;3.70;99.90;;;;;;5093537;28;20054;-67
2023/01/31 00:24:29;;;;;;;19.75;3.42;;;3.70;99.90;;;;;;5091996;28;20050;-68
2023/01/31 00:26:58;;;;;;;20.25;3.35;;;3.60;99.90;;;;;;5092626;28;20059;-68
2023/01/31 00:29:23;;;;;;;16.00;2.42;;;3.70;99.90;;;;;;5092681;28;20036;-69
2023/01/31 00:31:50;;;;;;;21.20;3.15;;;3.60;99.90;;;;;;5090815;28;20104;-67
2023/01/31 00:34:16;;;;;;;20.85;3.10;;;3.50;99.90;;;;;;5091670;28;20051;-68
2023/01/31 00:36:42;;;;;;;22.95;3.22;;;3.50;99.90;;;;;;5091339;28;20048;-67
2023/01/31 00:39:09;;;;;;;20.88;4.03;;;3.50;99.90;;;;;;5075309;28;20055;-66
2023/01/31 00:41:36;;;;;;;19.98;2.97;;;3.50;99.90;;;;;;5090819;28;20028;-67
2023/01/31 00:44:03;;;;;;;13.60;3.35;;;3.50;99.90;;;;;;5093489;28;20055;-68
2023/01/31 00:46:29;;;;;;;17.88;2.88;;;3.50;99.90;;;;;;5092643;28;20043;-67
2023/01/31 00:48:55;;;;;;;14.43;2.55;;;3.50;99.90;;;;;;5092216;28;20047;-67
2023/01/31 00:51:23;;;;;;;19.20;2.60;;;3.50;99.90;;;;;;5092569;28;20071;-68
2023/01/31 00:53:49;;;;;;;14.30;2.55;;;3.50;99.90;;;;;;5091358;28;20062;-67
2023/01/31 00:56:19;;;;;;;20.50;2.53;;;3.80;99.90;;;;;;5091418;28;20612;-66
2023/01/31 00:58:45;;;;;;;20.50;2.88;;;3.50;99.90;;;;;;5090780;28;20040;-67
2023/01/31 01:01:20;;;;;;;20.27;2.78;;;3.60;99.90;;;;;;5092359;28;20103;-67
2023/01/31 01:03:45;;;;;;;15.88;2.40;;;3.50;99.90;;;;;;5090261;28;20086;-67
2023/01/31 01:06:11;;;;;;;17.52;2.30;;;3.80;99.90;;;;;;5091430;28;20044;-67
2023/01/31 01:08:39;;;;;;;23.48;3.13;;;3.50;99.90;;;;;;5091118;28;20048;-67
2023/01/31 01:11:09;;;;;;;14.45;2.25;;;3.40;99.90;;;;;;5090982;28;20032;-67
2023/01/31 01:13:36;;;;;;;21.50;2.78;;;3.40;99.90;;;;;;5092482;28;20700;-66
2023/01/31 01:16:14;;;;;;;17.15;3.70;;;3.40;99.90;;;;;;5090902;28;20050;-66
2023/01/31 01:18:40;;;;;;;19.58;2.38;;;3.40;99.90;;;;;;5092505;28;20055;-67
2023/01/31 01:21:11;;;;;;;18.75;2.83;;;3.40;99.90;;;;;;5091812;28;20103;-67
2023/01/31 01:23:38;;;;;;;13.32;2.00;;;3.40;99.90;;;;;;5090519;28;20069;-67
2023/01/31 01:26:05;;;;;;;14.13;2.15;;;3.30;99.90;;;;;;5091383;28;20754;-66
2023/01/31 01:28:34;;;;;;;16.80;2.55;;;3.30;99.90;;;;;;5089588;28;20062;-67
2023/01/31 01:31:11;;;;;;;16.05;2.67;;;3.30;99.90;;;;;;5091789;28;20077;-68
2023/01/31 01:33:37;;;;;;;19.27;2.67;;;3.30;99.90;;;;;;5090990;28;20036;-67
2023/01/31 01:36:04;;;;;;;19.30;2.60;;;3.30;99.90;;;;;;5089379;28;20088;-67
2023/01/31 01:38:36;;;;;;;18.45;2.22;;;3.30;99.90;;;;;;5091105;28;20076;-67
2023/01/31 01:41:03;;;;;;;15.43;1.95;;;3.50;99.90;;;;;;5090588;28;20073;-67
2023/01/31 01:43:45;;;;;;;24.45;2.97;;;3.30;99.90;;;;;;5092479;28;20047;-67
2023/01/31 01:46:20;;;;;;;17.33;2.78;;;3.30;99.90;;;;;;5090852;28;20040;-67
2023/01/31 01:48:49;;;;;;;17.98;2.35;;;3.30;99.90;;;;;;5091891;28;20036;-67
2023/01/31 01:51:18;;;;;;;17.65;2.75;;;3.30;99.90;;;;;;5090242;28;20567;-66
2023/01/31 01:53:45;;;;;;;25.83;3.63;;;3.30;99.90;;;;;;5089721;28;20040;-67
2023/01/31 01:56:18;;;;;;;14.98;2.47;;;3.20;99.90;;;;;;5057766;28;20062;-67
2023/01/31 01:58:53;;;;;;;24.42;3.97;;;3.20;99.90;;;;;;5090667;28;20100;-66
2023/01/31 02:01:19;;;;;;;16.25;2.88;;;3.10;99.90;;;;;;5091324;28;20104;-67
2023/01/31 02:03:47;;;;;;;15.50;2.42;;;3.10;99.90;;;;;;5089966;28;20040;-66
2023/01/31 02:06:13;;;;;;;16.67;3.03;;;3.10;99.90;;;;;;5091052;28;20131;-67
2023/01/31 02:08:42;;;;;;;17.02;2.28;;;3.00;99.90;;;;;;5091675;28;21190;-67
2023/01/31 02:11:27;;;;;;;15.90;2.53;;;3.00;99.90;;;;;;5072226;28;20087;-67
2023/01/31 02:14:02;;;;;;;20.33;3.10;;;3.00;99.90;;;;;;5092204;28;20071;-67
2023/01/31 02:16:28;;;;;;;14.03;2.93;;;3.00;99.90;;;;;;5091753;28;20056;-67
2023/01/31 02:18:55;;;;;;;11.65;2.38;;;3.00;99.90;;;;;;5090239;28;20089;-67
2023/01/31 02:21:43;;;;;;;17.60;2.72;;;3.00;99.90;;;;;;5056971;28;20044;-68
2023/01/31 02:24:12;;;;;;;16.85;2.47;;;3.00;99.90;;;;;;5090900;28;20051;-68
2023/01/31 02:27:23;;;;;;;16.13;2.60;;;3.00;99.90;;;;;;5091511;28;20087;-67
2023/01/31 02:30:07;;;;;;;12.60;2.60;;;3.00;99.90;;;;;;5091242;28;20075;-66
2023/01/31 02:32:47;;;;;;;18.90;2.85;;;3.10;99.90;;;;;;5090330;28;20048;-67
2023/01/31 02:35:21;;;;;;;17.77;2.25;;;3.10;99.90;;;;;;5091084;28;20056;-67
2023/01/31 02:38:15;;;;;;;17.02;2.75;;;3.30;99.90;;;;;;5089472;28;20048;-67
2023/01/31 02:41:03;;;;;;;18.75;3.03;;;3.10;99.90;;;;;;5087230;28;20097;-67
2023/01/31 02:44:57;;;;;;;17.10;2.35;;;3.20;99.90;;;;;;5094770;28;20054;-68
2023/01/31 02:46:38;;;;;;;18.25;3.33;;;3.10;99.90;;;;;;5093750;28;20048;-67
2023/01/31 02:49:33;;;;;;;8.73;2.13;;;3.20;99.90;;;;;;5093135;28;20043;-66
2023/01/31 02:52:17;;;;;;;23.23;3.17;;;3.20;99.90;;;;;;5094557;28;20046;-66
2023/01/31 02:57:50;;;;;;;18.83;3.13;;;3.30;99.90;;;;;;5092614;28;20047;-68
2023/01/31 03:00:17;;;;;;;17.85;2.28;;;3.30;99.90;;;;;;5094068;28;20066;-66
2023/01/31 03:02:43;;;;;;;15.07;2.60;;;3.40;99.90;;;;;;5092113;28;20044;-66
2023/01/31 03:05:14;;;;;;;25.77;3.33;;;3.40;99.90;;;;;;5095243;28;20944;-66
2023/01/31 03:07:42;;;;;;;17.88;2.85;;;3.40;99.90;;;;;;5092432;28;20108;-67
2023/01/31 03:10:35;;;;;;;17.38;2.88;;;3.40;99.90;;;;;;5094416;28;20055;-67
2023/01/31 03:13:06;;;;;;;17.55;3.13;;;3.40;99.90;;;;;;5094988;28;20534;-67
2023/01/31 03:18:31;;;;;;;9.93;2.10;;;3.40;99.90;;;;;;5093904;28;20126;-66
2023/01/31 03:21:18;;;;;;;13.80;2.92;;;3.40;99.90;;;;;;5094472;28;20044;-66
2023/01/31 03:23:48;;;;;;;18.27;2.92;;;3.40;99.90;;;;;;5080411;28;20056;-67
2023/01/31 03:26:16;;;;;;;16.35;2.60;;;3.40;99.90;;;;;;5069229;28;20107;-66
2023/01/31 03:28:42;;;;;;;22.88;2.80;;;3.40;99.90;;;;;;5093284;28;20055;-67
2023/01/31 03:31:22;;;;;;;24.20;3.05;;;3.60;99.90;;;;;;5092686;28;20096;-66
2023/01/31 03:33:51;;;;;;;21.10;3.08;;;3.40;99.90;;;;;;5090223;28;20192;-66
2023/01/31 03:36:27;;;;;;;16.23;2.85;;;3.40;99.90;;;;;;5092610;28;20036;-66
2023/01/31 03:39:08;;;;;;;;;;;3.40;99.90;;;;;;5094454;28;20043;-67
2023/01/31 03:41:51;;;;;;;14.00;2.90;;;3.40;99.90;;;;;;5073480;28;19932;-67
2023/01/31 03:44:45;;;;;;;18.35;3.22;;;3.40;99.90;;;;;;5058526;28;20116;-67
2023/01/31 03:47:20;;;;;;;20.55;2.95;;;3.50;99.90;;;;;;5056571;28;20544;-67
2023/01/31 03:49:49;;;;;;;15.02;2.83;;;3.50;99.90;;;;;;5073311;28;22935;-67
2023/01/31 03:52:22;;;;;;;19.40;3.50;;;3.70;99.90;;;;;;5090856;28;20044;-66
2023/01/31 03:54:58;;;;;;;19.90;3.80;;;3.60;99.90;;;;;;5089643;28;20058;-66
2023/01/31 03:57:31;;;;;;;13.60;3.17;;;3.60;99.90;;;;;;5091252;28;20066;-66
2023/01/31 03:59:59;;;;;;;19.67;3.10;;;3.60;99.90;;;;;;5090560;28;20507;-66
2023/01/31 04:02:35;;;;;;;19.48;3.72;;;3.80;99.90;;;;;;5088522;28;20044;-66
2023/01/31 04:05:15;;;;;;;18.63;3.05;;;3.70;99.90;;;;;;5093078;28;20043;-67
2023/01/31 04:07:42;;;;;;;16.30;3.42;;;3.80;99.90;;;;;;5092623;28;20040;-66
2023/01/31 04:10:14;;;;;;;21.08;3.00;;;3.80;99.90;;;;;;5090193;28;20461;-67
2023/01/31 04:12:40;;;;;;;17.58;3.22;;;3.80;99.90;;;;;;5093523;28;20443;-66
2023/01/31 04:15:06;;;;;;;13.90;3.65;;;3.80;99.90;;;;;;5091577;28;20036;-66
2023/01/31 04:17:32;;;;;;;20.45;3.85;;;3.90;99.90;;;;;;5090776;28;21385;-67
2023/01/31 04:19:58;;;;;;;25.25;3.45;;;3.90;99.90;;;;;;5091783;28;20060;-67
2023/01/31 04:22:24;;;;;;;21.55;4.00;;;4.00;99.90;;;;;;5093552;28;20051;-66
2023/01/31 04:24:50;;;;;;;25.45;3.80;;;4.00;99.90;;;;;;5090854;28;20153;-66
2023/01/31 04:27:16;;;;;;;25.77;3.50;;;4.00;99.90;;;;;;5091811;28;20526;-68
2023/01/31 04:29:41;;;;;;;27.38;4.03;;;4.10;99.90;;;;;;5092465;28;20051;-66
2023/01/31 04:32:07;;;;;;;19.23;3.50;;;4.40;99.90;;;;;;5089930;28;20113;-66
2023/01/31 04:34:33;;;;;;;23.50;3.97;;;4.10;99.90;;;;;;5093092;28;20056;-66
2023/01/31 04:36:59;;;;;;;22.05;4.35;;;4.10;99.90;;;;;;5088076;28;20078;-68
2023/01/31 04:39:25;;;;;;;26.08;3.83;;;4.20;99.90;;;;;;5092753;28;20075;-67
2023/01/31 04:41:50;;;;;;;19.45;3.20;;;4.20;99.90;;;;;;5091096;28;20048;-66
2023/01/31 04:44:16;;;;;;;17.85;4.03;;;4.10;99.90;;;;;;5092789;28;20050;-66
2023/01/31 04:46:42;;;;;;;28.65;4.45;;;4.30;99.90;;;;;;5091712;28;20053;-65
2023/01/31 04:49:08;;;;;;;18.45;3.72;;;4.20;99.90;;;;;;5091428;28;20055;-67
2023/01/31 04:51:33;;;;;;;23.02;5.05;;;4.20;99.90;;;;;;5091135;28;20040;-66
2023/01/31 04:53:59;;;;;;;31.88;4.65;;;4.20;99.90;;;;;;5089507;28;20086;-67
2023/01/31 04:56:25;;;;;;;22.85;4.70;;;4.20;99.90;;;;;;5092269;28;20083;-66
2023/01/31 04:58:51;;;;;;;27.27;4.22;;;4.20;99.90;;;;;;5091077;28;20040;-66
2023/01/31 05:01:16;;;;;;;24.40;4.78;;;4.20;99.90;;;;;;5091905;28;20082;-66
2023/01/31 05:03:42;;;;;;;26.13;5.68;;;4.20;99.90;;;;;;5091847;28;20055;-67
2023/01/31 05:06:08;;;;;;;20.05;5.03;;;4.20;99.90;;;;;;5091337;28;20040;-68
2023/01/31 05:08:34;;;;;;;23.20;4.32;;;4.30;99.90;;;;;;5092246;28;20044;-66
2023/01/31 05:11:01;;;;;;;20.73;4.68;;;4.30;99.90;;;;;;5088971;28;20028;-66
2023/01/31 05:13:29;;;;;;;23.65;4.68;;;4.20;99.90;;;;;;5092618;28;20087;-66
2023/01/31 05:15:56;;;;;;;19.92;4.30;;;4.20;99.90;;;;;;5090513;28;20044;-65
2023/01/31 05:18:23;;;;;;;26.92;5.20;;;4.20;99.90;;;;;;5083896;28;20070;-66
2023/01/31 05:20:49;;;;;;;24.88;5.85;;;4.20;99.90;;;;;;5091489;28;20050;-66
2023/01/31 05:23:16;;;;;;;20.88;5.68;;;4.20;99.90;;;;;;5091172;28;20067;-66
2023/01/31 05:25:43;;;;;;;24.50;5.38;;;4.20;99.90;;;;;;5091696;28;20458;-66
2023/01/31 05:28:10;;;;;;;29.00;6.20;;;4.20;99.90;;;;;;5090117;28;20111;-65
2023/01/31 05:30:36;;;;;;;29.58;5.88;;;4.20;99.90;;;;;;5091707;28;20561;-66
2023/01/31 05:33:02;;;;;;;28.65;6.05;;;4.20;99.90;;;;;;5090511;28;20040;-66
2023/01/31 05:35:27;;;;;;;26.75;5.57;;;4.20;99.90;;;;;;5092046;28;20148;-67
2023/01/31 05:37:54;;;;;;;31.95;6.38;;;4.20;99.90;;;;;;5091063;28;20060;-67
2023/01/31 05:40:20;;;;;;;28.38;6.35;;;4.30;99.90;;;;;;5091091;28;20043;-66
2023/01/31 05:42:53;;;;;;;32.10;6.28;;;4.30;99.90;;;;;;5091154;28;20114;-66
2023/01/31 05:45:19;;;;;;;33.38;7.72;;;4.30;99.90;;;;;;5091104;28;20104;-66
2023/01/31 05:47:46;;;;;;;28.15;5.72;;;3.70;99.90;;;;;;5092215;28;20101;-66
2023/01/31 05:50:12;;;;;;;27.60;6.05;;;4.40;99.90;;;;;;5090153;28;20036;-66
2023/01/31 05:52:37;;;;;;;32.63;6.80;;;4.40;99.90;;;;;;5091810;28;20062;-66
2023/01/31 05:55:04;;;;;;;27.73;6.63;;;4.50;99.90;;;;;;5090936;28;20052;-66
2023/01/31 05:57:29;;;;;;;30.83;7.22;;;4.50;99.90;;;;;;5089707;28;20032;-67
2023/01/31 05:59:55;;;;;;;31.50;6.85;;;4.50;99.90;;;;;;5090980;28;20062;-66
2023/01/31 06:02:21;;;;;;;23.45;7.15;;;4.60;99.90;;;;;;5088423;28;20111;-66
2023/01/31 06:04:48;;;;;;;27.63;7.22;;;4.60;99.90;;;;;;5091488;28;20041;-67
2023/01/31 06:07:14;;;;;;;27.45;6.97;;;4.70;99.90;;;;;;5090026;28;20122;-66
2023/01/31 06:09:40;;;;;;;29.98;7.13;;;4.70;99.90;;;;;;5092000;28;20130;-66
2023/01/31 06:12:11;;;;;;;33.45;8.32;;;4.70;99.90;;;;;;5089340;28;20598;-66
2023/01/31 06:14:36;;;;;;;29.02;7.20;;;4.80;99.90;;;;;;5091222;28;20052;-66
2023/01/31 06:17:03;;;;;;;34.72;7.38;;;4.70;99.90;;;;;;5093491;28;20048;-67
2023/01/31 06:19:28;;;;;;;37.35;9.15;;;4.80;99.90;;;;;;5095035;28;20082;-66
2023/01/31 06:21:54;;;;;;;26.58;7.80;;;4.80;99.90;;;;;;5094734;28;20050;-66
2023/01/31 06:24:20;;;;;;;32.53;7.60;;;4.90;99.90;;;;;;5094338;28;20108;-66
2023/01/31 06:26:46;;;;;;;29.98;7.70;;;4.90;99.90;;;;;;5094088;28;20108;-66
2023/01/31 06:29:12;;;;;;;33.60;7.20;;;4.90;99.90;;;;;;5094825;28;20158;-66
2023/01/31 06:31:37;;;;;;;29.30;8.13;;;4.90;99.90;;;;;;5093546;28;20507;-66
2023/01/31 06:34:03;;;;;;;36.72;7.72;;;4.80;99.90;;;;;;5094041;28;20051;-67
2023/01/31 06:36:32;;;;;;;28.58;7.72;;;4.90;99.90;;;;;;5094070;28;20048;-67
2023/01/31 06:38:58;;;;;;;25.17;6.38;;;4.90;99.90;;;;;;5095318;28;20905;-66
2023/01/31 06:41:24;;;;;;;29.67;6.97;;;4.90;99.90;;;;;;5092986;28;20061;-66
2023/01/31 06:43:50;;;;;;;24.40;6.15;;;5.00;99.90;;;;;;5094613;28;20047;-66
2023/01/31 06:46:16;;;;;;;33.95;7.35;;;5.00;99.90;;;;;;5106532;27;20048;-66
2023/01/31 06:48:42;;;;;;;27.95;6.25;;;5.10;99.90;;;;;;5091290;28;20056;-66
2023/01/31 06:51:08;;;;;;;27.90;6.35;;;5.10;99.90;;;;;;5094611;28;20486;-65
2023/01/31 06:53:34;;;;;;;30.60;7.40;;;5.20;99.90;;;;;;5083176;28;20063;-67
2023/01/31 06:56:00;;;;;;;36.95;7.78;;;5.10;99.90;;;;;;5093024;28;20081;-66
2023/01/31 06:58:27;;;;;;;31.27;6.82;;;5.20;99.90;;;;;;5092557;28;20047;-66
2023/01/31 07:00:52;;;;;;;24.45;5.40;;;5.20;99.90;;;;;;5093356;28;20063;-66
2023/01/31 07:03:18;;;;;;;36.75;6.43;;;5.30;99.90;;;;;;5092307;28;20052;-66
2023/01/31 07:05:45;;;;;;;29.27;6.25;;;5.20;99.90;;;;;;5092228;28;20068;-66
2023/01/31 07:08:11;;;;;;;21.00;5.60;;;5.30;99.90;;;;;;5093202;28;20054;-66
2023/01/31 07:10:36;;;;;;;25.70;6.50;;;5.30;99.90;;;;;;5091354;28;20071;-67
2023/01/31 07:13:02;;;;;;;23.95;5.85;;;5.40;99.90;;;;;;5091611;28;20046;-65
2023/01/31 07:15:28;;;;;;;19.23;5.32;;;5.40;99.90;;;;;;5090422;28;20078;-65
2023/01/31 07:17:58;;;;;;;22.55;5.35;;;5.40;99.90;;;;;;5090922;28;20419;-66
2023/01/31 07:20:24;;;;;;;21.15;5.30;;;5.40;99.90;;;;;;5090822;28;20117;-65
2023/01/31 07:22:54;;;;;;;25.83;5.85;;;5.40;99.90;;;;;;5092598;28;20286;-66
2023/01/31 07:25:20;;;;;;;23.25;4.90;;;5.40;99.90;;;;;;5092032;28;20135;-66
2023/01/31 07:27:45;;;;;;;20.90;5.53;;;5.40;99.90;;;;;;5090907;28;20119;-65
2023/01/31 07:30:12;;;;;;;32.17;4.97;;;5.40;99.90;;;;;;5092441;28;20442;-66
2023/01/31 07:32:38;;;;;;;27.00;4.68;;;5.50;99.90;;;;;;5091828;28;20059;-66
2023/01/31 07:35:04;;;;;;;28.13;5.07;;;5.50;99.90;;;;;;5093738;28;20052;-65
2023/01/31 07:37:30;;;;;;;24.17;4.93;;;5.50;99.90;;;;;;5090436;28;20055;-64
2023/01/31 07:39:55;;;;;;;29.20;4.63;;;4.80;99.90;;;;;;5093085;28;20044;-65
2023/01/31 07:42:21;;;;;;;24.65;4.78;;;5.50;99.90;;;;;;5091773;28;20056;-65
2023/01/31 07:44:47;;;;;;;28.52;5.20;;;5.50;99.90;;;;;;5089695;28;20044;-65
2023/01/31 07:47:13;;;;;;;26.50;5.25;;;6.60;99.90;;;;;;5093280;28;20120;-65
2023/01/31 07:49:38;;;;;;;23.30;5.15;;;5.50;99.90;;;;;;5089258;28;20048;-65
2023/01/31 07:52:04;;;;;;;23.85;5.93;;;5.50;99.90;;;;;;5092909;28;20065;-65
2023/01/31 07:54:30;;;;;;;26.33;4.50;;;5.40;99.90;;;;;;5089339;28;20431;-65
2023/01/31 07:56:55;;;;;;;23.90;4.18;;;5.40;99.90;;;;;;5091265;28;20065;-65
2023/01/31 07:59:21;;;;;;;21.38;4.70;;;5.50;99.90;;;;;;5091906;28;20047;-66
2023/01/31 08:04:33;;;;;;;26.10;5.78;;;5.60;99.90;;;;;;5089505;28;20056;-65
2023/01/31 08:07:01;;;;;;;27.67;6.82;;;5.60;99.90;;;;;;5090763;28;20054;-65
2023/01/31 08:09:27;;;;;;;30.08;7.40;;;5.60;99.90;;;;;;5092606;28;20607;-65
2023/01/31 08:11:53;;;;;;;30.60;7.03;;;5.60;99.90;;;;;;5089248;28;20044;-66
2023/01/31 08:14:24;;;;;;;24.52;6.00;;;5.60;99.90;;;;;;5087391;28;20150;-65
2023/01/31 08:16:50;;;;;;;33.22;6.90;;;5.60;99.90;;;;;;5088137;28;20044;-65
2023/01/31 08:19:16;;;;;;;25.85;6.45;;;5.60;99.90;;;;;;5089418;28;20042;-66
2023/01/31 08:21:42;;;;;;;17.88;5.28;;;5.60;99.90;;;;;;5092857;28;20431;-65
2023/01/31 08:24:08;;;;;;;27.20;4.95;;;5.70;99.90;;;;;;5089581;28;20048;-66
2023/01/31 08:26:34;;;;;;;22.42;5.85;;;5.70;99.90;;;;;;5093038;28;20546;-66
2023/01/31 08:28:59;;;;;;;24.30;4.47;;;5.70;99.90;;;;;;5092041;28;20771;-65
2023/01/31 08:31:26;;;;;;;15.82;3.55;;;5.70;99.90;;;;;;5089509;28;20043;-66
2023/01/31 08:33:53;;;;;;;22.75;4.03;;;5.80;99.90;;;;;;5092146;28;20063;-65
2023/01/31 08:36:25;;;;;;;19.20;4.65;;;5.80;99.90;;;;;;5090900;28;20051;-66
2023/01/31 08:38:51;;;;;;;21.92;4.25;;;5.80;99.90;;;;;;5091669;28;20131;-66
2023/01/31 08:41:19;;;;;;;15.23;3.80;;;5.80;99.90;;;;;;5088939;28;20142;-66
2023/01/31 08:43:47;;;;;;;22.67;4.75;;;5.80;99.90;;;;;;5085463;28;20446;-66
2023/01/31 08:46:14;;;;;;;21.00;3.90;;;5.80;99.90;;;;;;5087929;28;20040;-65
2023/01/31 08:48:41;;;;;;;22.48;4.35;;;5.80;99.90;;;;;;5072894;28;20362;-66
2023/01/31 08:51:11;;;;;;;26.17;4.53;;;5.80;99.90;;;;;;5088762;28;20044;-65
2023/01/31 08:53:39;;;;;;;17.85;4.10;;;5.90;99.90;;;;;;5089994;28;20043;-66
2023/01/31 08:56:07;;;;;;;21.95;4.30;;;5.90;99.90;;;;;;5091845;28;20378;-66
2023/01/31 08:58:34;;;;;;;24.70;4.53;;;5.90;99.90;;;;;;5090023;28;20056;-65
2023/01/31 09:01:02;;;;;;;24.33;3.95;;;5.90;99.90;;;;;;5091068;28;20098;-66
2023/01/31 09:03:28;;;;;;;14.25;3.97;;;5.90;99.90;;;;;;5089228;28;20048;-66
2023/01/31 09:05:53;;;;;;;18.05;4.03;;;5.90;99.90;;;;;;5090730;28;20047;-66
2023/01/31 09:08:19;;;;;;;20.25;3.45;;;5.90;99.90;;;;;;5089750;28;20032;-66
2023/01/31 09:10:52;;;;;;;18.95;3.92;;;6.00;99.90;;;;;;5090682;28;20039;-65
2023/01/31 09:13:18;;;;;;;22.77;4.95;;;6.00;99.90;;;;;;5092171;28;20171;-66
2023/01/31 09:15:43;;;;;;;20.83;4.20;;;6.00;99.90;;;;;;5089984;28;20083;-65
2023/01/31 09:18:09;;;;;;;17.25;4.43;;;6.10;99.90;;;;;;5090217;28;20051;-66
2023/01/31 09:20:35;;;;;;;18.90;3.72;;;6.10;99.90;;;;;;5089657;28;20044;-66
2023/01/31 09:23:00;;;;;;;22.98;4.22;;;6.20;99.90;;;;;;5086617;28;20121;-66
2023/01/31 09:25:26;;;;;;;20.92;4.18;;;6.20;99.90;;;;;;5091581;28;20602;-66
2023/01/31 09:27:53;;;;;;;12.50;3.22;;;6.30;99.90;;;;;;5089623;28;20043;-66
2023/01/31 09:30:19;;;;;;;18.15;3.15;;;6.30;99.90;;;;;;5090041;28;20043;-66
2023/01/31 09:32:45;;;;;;;19.52;3.47;;;6.30;99.90;;;;;;5088544;28;20040;-66
2023/01/31 09:35:11;;;;;;;16.10;3.50;;;6.40;99.90;;;;;;5089991;28;20132;-66
2023/01/31 09:37:38;;;;;;;12.30;3.13;;;6.40;99.90;;;;;;5089675;28;20108;-66
2023/01/31 09:40:04;;;;;;;19.33;3.72;;;6.50;99.90;;;;;;5089427;28;20166;-66
2023/01/31 09:42:39;;;;;;;16.92;3.13;;;6.60;99.90;;;;;;5087800;28;20036;-66
2023/01/31 09:45:12;;;;;;;15.73;3.47;;;6.60;99.90;;;;;;5095557;28;20044;-65
2023/01/31 09:47:46;;;;;;;16.90;3.55;;;6.70;99.90;;;;;;5088131;28;20144;-66
2023/01/31 09:50:33;;;;;;;24.73;3.88;;;6.70;99.90;;;;;;5085895;28;20064;-65
2023/01/31 09:52:59;;;;;;;20.45;3.58;;;6.70;99.90;;;;;;5091108;28;20051;-66
2023/01/31 09:55:47;;;;;;;17.35;3.33;;;6.70;99.90;;;;;;5093873;28;20044;-66
2023/01/31 09:58:42;;;;;;;21.10;4.03;;;6.80;99.90;;;;;;5089097;28;20138;-66
2023/01/31 10:01:34;;;;;;;16.15;4.38;;;6.70;99.90;;;;;;5072241;28;20456;-66
2023/01/31 10:04:09;;;;;;;18.05;3.58;;;6.80;99.90;;;;;;5091867;28;20299;-66
2023/01/31 10:06:44;;;;;;;20.88;3.10;;;6.80;99.90;;;;;;5090681;28;20082;-65
2023/01/31 10:09:15;;;;;;;15.77;3.47;;;6.90;99.90;;;;;;5094067;28;20047;-65
2023/01/31 10:11:51;;;;;;;17.98;3.60;;;6.90;99.90;;;;;;5090551;28;20667;-65
2023/01/31 10:14:28;;;;;;;19.50;3.42;;;6.90;99.90;;;;;;5094494;28;20071;-66
2023/01/31 10:17:03;;;;;;;16.70;3.38;;;6.80;99.90;;;;;;5091014;28;20044;-66
2023/01/31 10:19:52;;;;;;;20.33;3.58;;;6.90;99.90;;;;;;5090542;28;20062;-66
2023/01/31 10:22:24;;;;;;;14.52;3.78;;;6.90;99.90;;;;;;5090192;28;20047;-65
2023/01/31 10:24:58;;;;;;;19.27;3.47;;;6.90;99.90;;;;;;5091310;28;20040;-65
2023/01/31 10:27:47;;;;;;;24.10;4.00;;;6.90;99.90;;;;;;5091084;28;20036;-65
2023/01/31 10:30:22;;;;;;;18.35;3.38;;;6.90;99.90;;;;;;5090258;28;20148;-66
2023/01/31 10:32:55;;;;;;;14.77;3.47;;;7.00;99.90;;;;;;5091181;28;20044;-66
2023/01/31 10:35:29;;;;;;;17.92;3.58;;;7.00;99.90;;;;;;5091999;28;20102;-66
2023/01/31 10:38:11;;;;;;;16.80;3.53;;;7.00;99.90;;;;;;5092507;28;20059;-66
2023/01/31 10:40:39;;;;;;;20.60;3.80;;;7.00;99.90;;;;;;5089773;28;20116;-66
2023/01/31 10:43:11;;;;;;;22.88;4.10;;;7.00;99.90;;;;;;5091678;28;20048;-65
2023/01/31 10:45:37;;;;;;;22.27;4.03;;;7.00;99.90;;;;;;5090096;28;20055;-65
2023/01/31 10:48:24;;;;;;;18.80;3.78;;;7.00;99.90;;;;;;5092609;28;20071;-65
2023/01/31 10:50:55;;;;;;;22.92;3.78;;;7.00;99.90;;;;;;5090093;28;20050;-65
2023/01/31 10:53:24;;;;;;;19.52;3.65;;;7.00;99.90;;;;;;5087962;28;20430;-65
2023/01/31 10:56:20;;;;;;;17.17;3.70;;;7.00;99.90;;;;;;5087287;28;20051;-65
2023/01/31 10:58:46;;;;;;;18.13;3.22;;;7.00;99.90;;;;;;5086944;28;20051;-66
2023/01/31 11:01:13;;;;;;;26.10;3.97;;;7.00;99.90;;;;;;5087541;28;20315;-67
2023/01/31 11:03:47;;;;;;;19.77;3.08;;;7.00;99.90;;;;;;5070460;28;20120;-65
2023/01/31 11:06:13;;;;;;;19.90;4.05;;;7.00;99.90;;;;;;5088385;28;20039;-66
2023/01/31 11:08:49;;;;;;;19.95;3.85;;;7.10;99.90;;;;;;5093604;28;20052;-66
2023/01/31 11:11:17;;;;;;;24.75;3.90;;;7.10;99.90;;;;;;5087196;28;20127;-65
2023/01/31 11:14:04;;;;;;;20.40;3.78;;;7.10;99.90;;;;;;5090948;28;20097;-65
2023/01/31 11:16:38;;;;;;;21.60;4.53;;;7.10;99.90;;;;;;5088522;28;20126;-66
2023/01/31 11:19:12;;;;;;;23.33;4.20;;;7.20;99.90;;;;;;5089773;28;20036;-66
2023/01/31 11:21:39;;;;;;;21.33;4.32;;;7.20;99.90;;;;;;5089656;28;20093;-66
2023/01/31 11:24:14;;;;;;;24.15;4.05;;;7.20;99.90;;;;;;5092084;28;20820;-66
2023/01/31 11:26:47;;;;;;;17.27;4.13;;;7.20;99.90;;;;;;5089283;28;20044;-65
2023/01/31 11:29:19;;;;;;;23.25;4.38;;;7.10;99.90;;;;;;5092036;28;20048;-66
2023/01/31 11:31:46;;;;;;;20.92;3.50;;;7.10;99.90;;;;;;5090791;28;20043;-66
2023/01/31 11:34:22;;;;;;;19.20;4.43;;;7.10;99.90;;;;;;5088881;28;20044;-65
2023/01/31 11:36:48;;;;;;;15.45;3.33;;;7.10;99.90;;;;;;5091841;28;20084;-65
2023/01/31 11:39:36;;;;;;;18.55;3.70;;;7.20;99.90;;;;;;5091644;28;20407;-65
2023/01/31 11:42:10;;;;;;;18.63;4.13;;;7.20;99.90;;;;;;5089453;28;20047;-66
2023/01/31 11:44:52;;;;;;;17.75;3.75;;;7.30;99.90;;;;;;5089268;28;20044;-65
2023/01/31 11:47:17;;;;;;;19.38;3.35;;;7.30;99.90;;;;;;5089548;28;20083;-65
2023/01/31 11:49:49;;;;;;;18.90;3.15;;;7.40;99.90;;;;;;5089908;28;20047;-65
2023/01/31 11:52:20;;;;;;;19.45;3.95;;;7.40;99.90;;;;;;5090708;28;20051;-65
2023/01/31 11:54:50;;;;;;;17.10;3.42;;;7.40;99.90;;;;;;5087658;28;20075;-65
2023/01/31 11:57:25;;;;;;;15.68;4.30;;;7.40;99.90;;;;;;5090189;28;20048;-66
2023/01/31 11:59:55;;;;;;;23.20;3.42;;;7.40;99.90;;;;;;5107059;28;20071;-65
2023/01/31 12:02:30;;;;;;;18.30;3.55;;;7.50;99.90;;;;;;5089888;28;20508;-65
2023/01/31 12:04:57;;;;;;;18.67;3.53;;;7.50;99.90;;;;;;5092407;28;20543;-65
2023/01/31 12:07:29;;;;;;;21.48;4.15;;;7.50;99.90;;;;;;5071724;28;20099;-66
2023/01/31 12:09:55;;;;;;;19.67;3.20;;;7.60;99.90;;;;;;5087858;28;20040;-66
2023/01/31 12:12:32;;;;;;;22.98;3.70;;;7.60;99.90;;;;;;5092143;28;20071;-66
2023/01/31 12:15:01;;;;;;;21.05;3.33;;;7.70;99.90;;;;;;5090560;28;20044;-65
2023/01/31 12:17:30;;;;;;;17.35;3.70;;;7.80;99.90;;;;;;5091934;28;20055;-65
2023/01/31 12:20:08;;;;;;;17.92;3.28;;;7.70;99.90;;;;;;5090174;28;20136;-66
2023/01/31 12:22:46;;;;;;;19.80;3.30;;;7.80;99.90;;;;;;5091966;28;20059;-66
2023/01/31 12:25:35;;;;;;;19.88;3.30;;;7.80;99.90;;;;;;5089873;28;20059;-65
2023/01/31 12:28:34;;;;;;;15.00;3.45;;;7.90;99.90;;;;;;5090542;28;20040;-66
2023/01/31 12:31:00;;;;;;;22.05;3.70;;;7.90;99.90;;;;;;5085865;28;20073;-65
2023/01/31 12:33:49;;;;;;;19.63;3.70;;;8.00;99.90;;;;;;5088991;28;20103;-65
2023/01/31 12:36:33;;;;;;;23.90;3.78;;;8.10;99.90;;;;;;5068049;28;20091;-65
2023/01/31 12:39:16;;;;;;;18.15;4.15;;;8.20;99.90;;;;;;5089205;28;20048;-66
2023/01/31 12:42:05;;;;;;;17.20;3.03;;;8.20;99.90;;;;;;5088221;28;20060;-65
2023/01/31 12:44:31;;;;;;;16.65;3.15;;;8.30;99.90;;;;;;5085761;28;20156;-65
2023/01/31 12:47:12;;;;;;;14.57;2.60;;;8.30;99.90;;;;;;5088647;28;20583;-65
2023/01/31 12:49:38;;;;;;;17.60;2.83;;;8.40;99.90;;;;;;5089968;28;20091;-66
2023/01/31 12:52:22;;;;;;;15.82;3.30;;;8.50;99.90;;;;;;5091526;28;20044;-65
2023/01/31 12:55:02;;;;;;;19.52;3.55;;;8.50;99.90;;;;;;5090135;28;20040;-65
2023/01/31 12:57:37;;;;;;;21.20;3.67;;;8.60;99.90;;;;;;5090416;28;20088;-65
2023/01/31 13:00:23;;;;;;;12.73;3.28;;;8.70;99.90;;;;;;5090898;28;20048;-65
2023/01/31 13:03:19;;;;;;;10.07;2.80;;;8.70;99.90;;;;;;5070172;28;20141;-65
2023/01/31 13:05:56;;;;;;;16.52;3.20;;;8.80;99.90;;;;;;5088401;28;20052;-66
2023/01/31 13:08:28;;;;;;;16.02;3.38;;;8.90;99.90;;;;;;5089054;28;20039;-65
2023/01/31 13:11:26;;;;;;;13.60;3.13;;;9.10;99.90;;;;;;5088423;28;20048;-66
2023/01/31 13:14:03;;;;;;;14.57;3.25;;;9.50;99.90;;;;;;5087091;28;20450;-66